屋久島, 日本

2015年1月29日 09時13分 (GMT +0900)
Tanegashima | Change Station
CLOSE
Current Station
機場
Location: Tanegashima Airport,
海拔: 778 ft
附近的氣象站

海拔 778 ft 30.60 °N, 130.99 °E | Updated 13 minutes ago

Mostly Cloudy
多雲
52 °F
感覺像 52 °F
9
風 變化 風 來自 東北偏東

今日
高 -- | 低 -- °F
--% 降水機率
昨天
高 -- | 低 -- °F
Precip. -- 英寸
7:10 AM 5:50 PM
盈凸月, 69% visible
氣壓 30.21 英寸
能見度 6.2 英里
多雲 少數 1900 ft
多雲時晴 2500 ft
多雲 6000 ft
露點 46 °F
濕度 82%
降雨量 0.00 英寸
積雪深度 不適用。
紫外線 0 / 12
花粉 不適用。
空氣質素 不適用。
Flu Activity 不適用。
METAR RJFG 290000Z 06008KT 020V100 9999 FEW019 SCT025 BKN060 11/08 Q1023

More Conditions Fewer Conditions

氣壓 30.21 英寸
能見度 6.2 英里
多雲 少數 1900 ft
多雲時晴 2500 ft
多雲 6000 ft
露點 46 °F
濕度 82%
降雨量 0.00 英寸
積雪深度 不適用。
紫外線 0 / 12
花粉 不適用。
空氣質素 不適用。
Flu Activity 不適用。
METAR RJFG 290000Z 06008KT 020V100 9999 FEW019 SCT025 BKN060 11/08 Q1023

More Conditions Fewer Conditions

10-Day Weather Forecast

Almanac

天文

Jan. 29, 2015 昇起 降落
實際時間
民用曙暮光
航海曙暮光
天文學微明
月亮
可見光的長度
白晝時間
Tomorrow will be .
, % of the Moon is Illuminated

今天之最

國家高溫 國家低溫

Community

WunderPhotos

Upload Photos

1,791,302 照片已上傳!

WunderBlogs® & News

Nearby

空氣質素

  空氣質素 空氣質素指數 污染物
Not available.

積雪量

Station 深度 海拔

地震活動

城市 距離 時間和日期
顯示的最小幅度是2.5。

沿海水溫

地點 溫度

附近的氣象站